»·PEaware :: N82806 KSJC-KRNO

N82806 :: KSJC-KRNO

FLIGHT INFORMATION

Flight Status: Arrived
Operator: Privately registered:
United States
More flights under this callsign
Pilot: Gregory A. (9731)
Aircraft: PIPER PA-34 SENECA
(PA34)
More flights by this aircraft type
Origin: KSJC Mineta San Jose Intl
United States
Destination: KRNO Reno/Tahoe Intl
United States
More flights between these airports :: More routes between these airports
Route: +SUNOL9 SAC V6 SWR
File this flight plan on PilotEdge
Remarks:
Altitude:
(Current/Filed)
14,000ft
Speed:
(Current/Filed)
200kts
Departed: 16-Apr-18 01:16 PM
Arrived: 16-Apr-18 02:16 PM
Distance/Time
Traveled:
164nm/1:00
Distance/Time
To Go:
Arrived

Flight Plot

Page will automatically refresh every two minutes.

Flight plan parsing failed; only flown route is shown


Map Options




Map Legend


Flown Route
Filed Route
Departure Airport
Arrival Airport
Navaid (VOR, NDB)
Fix

Horizontal Profiles

Position Reports

Time Latitude Longitude Heading Altitude Ground
Speed
16-Apr-18 12:54 37.353028 -121.921599 226 65ft 0kts
16-Apr-18 12:55 37.353028 -121.921599 226 65ft 0kts
16-Apr-18 12:56 37.353027 -121.921600 226 65ft 0kts
16-Apr-18 12:57 37.353027 -121.921600 226 65ft 0kts
16-Apr-18 12:58 37.353027 -121.921600 226 65ft 0kts
16-Apr-18 12:59 37.353027 -121.921600 226 65ft 0kts
16-Apr-18 13:00 37.353027 -121.921600 226 65ft 0kts
16-Apr-18 13:01 37.353027 -121.921600 226 65ft 0kts
16-Apr-18 13:02 37.353027 -121.921600 226 65ft 0kts
16-Apr-18 13:03 37.353027 -121.921600 226 65ft 0kts
16-Apr-18 13:04 37.353027 -121.921600 226 65ft 0kts
16-Apr-18 13:05 37.353027 -121.921600 226 65ft 0kts
16-Apr-18 13:06 37.353027 -121.921600 226 65ft 0kts
16-Apr-18 13:07 37.353027 -121.921600 226 65ft 0kts
16-Apr-18 13:08 37.353027 -121.921601 226 65ft 0kts
16-Apr-18 13:09 37.353026 -121.921601 226 65ft 0kts
16-Apr-18 13:10 37.353025 -121.921602 226 65ft 0kts
16-Apr-18 13:11 37.353025 -121.921603 226 65ft 0kts
16-Apr-18 13:12 37.352363 -121.920708 95 65ft 7kts
16-Apr-18 13:13 37.352438 -121.919649 52 65ft 0kts
16-Apr-18 13:14 37.352965 -121.919273 342 65ft 9kts
16-Apr-18 13:15 37.370239 -121.935170 359 371ft 113kts
16-Apr-18 13:16 37.394781 -121.911423 42 1048ft 115kts
16-Apr-18 13:17 37.422918 -121.891415 22 1661ft 117kts
16-Apr-18 13:18 37.452723 -121.877905 19 2444ft 103kts
16-Apr-18 13:19 37.477868 -121.867024 16 3541ft 92kts
16-Apr-18 13:20 37.505614 -121.854722 18 4519ft 122kts
16-Apr-18 13:21 37.541016 -121.838652 21 5361ft 144kts
16-Apr-18 13:22 37.580806 -121.824216 11 6179ft 152kts
16-Apr-18 13:23 37.622265 -121.812335 14 7126ft 147kts
16-Apr-18 13:24 37.660394 -121.799538 15 8270ft 138kts
16-Apr-18 13:25 37.697916 -121.786090 15 9275ft 141kts
16-Apr-18 13:26 37.735885 -121.772519 14 10276ft 143kts
16-Apr-18 13:27 37.774670 -121.759592 11 11281ft 145kts
16-Apr-18 13:28 37.816668 -121.747185 9 11988ft 174kts
16-Apr-18 13:29 37.869062 -121.733286 9 11983ft 203kts
16-Apr-18 13:30 37.925384 -121.716711 11 11982ft 209kts
16-Apr-18 13:31 37.981969 -121.697745 12 11983ft 211kts
16-Apr-18 13:32 38.029268 -121.681984 11 11981ft 211kts
16-Apr-18 13:33 38.086433 -121.664292 10 11983ft 211kts
16-Apr-18 13:34 38.143401 -121.646849 11 11983ft 211kts
16-Apr-18 13:35 38.200262 -121.628730 11 11984ft 210kts
16-Apr-18 13:36 38.257301 -121.610642 11 11985ft 210kts
16-Apr-18 13:37 38.314187 -121.592636 11 11989ft 211kts
16-Apr-18 13:38 38.371140 -121.574642 11 11992ft 211kts
16-Apr-18 13:39 38.428250 -121.556518 11 11994ft 211kts
16-Apr-18 13:40 38.485580 -121.542265 1 11995ft 209kts
16-Apr-18 13:41 38.538322 -121.515332 35 11998ft 213kts
16-Apr-18 13:42 38.584143 -121.467519 57 11999ft 214kts
16-Apr-18 13:43 38.608592 -121.397803 65 11997ft 216kts
16-Apr-18 13:44 38.622995 -121.323400 80 11996ft 216kts
16-Apr-18 13:45 38.634274 -121.247966 74 11989ft 216kts
16-Apr-18 13:46 38.662872 -121.181039 53 11990ft 216kts
16-Apr-18 13:47 38.698174 -121.118636 52 11982ft 216kts
16-Apr-18 13:48 38.733321 -121.056518 52 11998ft 215kts
16-Apr-18 13:49 38.768452 -120.994239 52 12004ft 216kts
16-Apr-18 13:50 38.803982 -120.930974 53 12011ft 223kts
16-Apr-18 13:51 38.839650 -120.867115 52 12010ft 218kts
16-Apr-18 13:52 38.875355 -120.803676 53 12016ft 223kts
16-Apr-18 13:53 38.911200 -120.739426 52 12020ft 222kts
16-Apr-18 13:54 38.947012 -120.675427 52 12048ft 221kts
16-Apr-18 13:55 38.982735 -120.611656 52 12059ft 217kts
16-Apr-18 13:56 39.017995 -120.548845 52 12069ft 216kts
16-Apr-18 13:57 39.052496 -120.487649 52 12275ft 211kts
16-Apr-18 13:58 39.087280 -120.425523 52 12284ft 215kts
16-Apr-18 13:59 39.122408 -120.362991 51 12292ft 216kts
16-Apr-18 14:00 39.158424 -120.300674 49 12295ft 216kts
16-Apr-18 14:01 39.195272 -120.239488 51 12300ft 216kts
16-Apr-18 14:02 39.229747 -120.176615 49 12507ft 207kts
16-Apr-18 14:03 39.264205 -120.122467 45 13486ft 181kts
16-Apr-18 14:04 39.293145 -120.070431 70 14272ft 192kts
16-Apr-18 14:05 39.286593 -119.992872 100 13587ft 235kts
16-Apr-18 14:06 39.274384 -119.906390 101 12524ft 248kts
16-Apr-18 14:07 39.262891 -119.825243 101 12270ft 213kts
16-Apr-18 14:08 39.262479 -119.754649 45 11992ft 203kts
16-Apr-18 14:09 39.312649 -119.752211 342 10851ft 177kts
16-Apr-18 14:10 39.360208 -119.764206 358 9649ft 173kts
16-Apr-18 14:11 39.399797 -119.763836 357 8783ft 99kts
16-Apr-18 14:12 39.428122 -119.766576 359 7557ft 104kts
16-Apr-18 14:13 39.458223 -119.766059 358 6153ft 112kts
16-Apr-18 14:14 39.489098 -119.766773 359 4498ft 99kts
16-Apr-18 14:15 39.497754 -119.766333 49 4418ft 7kts
16-Apr-18 14:16 39.498819 -119.764093 92 4418ft 1kts
16-Apr-18 14:17 39.498818 -119.764088 92 4418ft 0kts

Navigation Log

Ident Type
Flight plan parsing failed, navigation log unavailable